Terminal Aerodrome Forecast
Issued by NWS

Home | Current Version | Previous Version | Text Only | Print | Product List | Glossary On
Versions: 1 2 3 4 5 6 7 8 9 10 11 12 13 14 15 16 17 18
000
FTUS45 KFGZ 311700
TAFPGA
TAF
KPGA 311720Z 3118/0118 VRB05KT P6SM BKN008 BKN035
     FM311900 VRB05KT P6SM SCT008 BKN035
     FM010700 VRB03KT P6SM VCFG BKN005
      TEMPO 0109/0113 1SM BR OVC003=

USA.gov is the U.S. government's official web portal to all federal, state and local government web resources and services.